createdAt,value
2018-02-19T00:01:04.074Z,34.19
2018-02-19T00:02:13.352Z,34.3
2018-02-19T00:03:22.352Z,34.09
2018-02-19T00:04:31.570Z,34.28
2018-02-19T00:05:40.546Z,34.19
2018-02-19T00:06:49.771Z,34.28
2018-02-19T00:07:59.248Z,34.3
2018-02-19T00:09:09.048Z,34.3
2018-02-19T00:10:18.026Z,34.19
2018-02-19T00:11:27.426Z,34.3
2018-02-19T00:12:36.100Z,34.28
2018-02-19T00:13:45.596Z,34.2
2018-02-19T00:14:54.537Z,34.2
2018-02-19T00:16:03.786Z,34.09
2018-02-19T00:17:13.021Z,34.3
2018-02-19T00:18:22.305Z,34.28
2018-02-19T00:19:31.527Z,34.19
2018-02-19T00:20:40.761Z,34.19
2018-02-19T00:21:50.288Z,34.2
2018-02-19T00:22:59.335Z,34.3
2018-02-19T00:24:08.567Z,34.28
2018-02-19T00:25:17.268Z,34.28
2018-02-19T00:26:26.491Z,34.28
2018-02-19T00:27:35.707Z,34.38
2018-02-19T00:28:44.758Z,34.3
2018-02-19T00:29:53.981Z,33.8
2018-02-19T00:31:03.224Z,33.7
2018-02-19T00:32:12.278Z,34.28
2018-02-19T00:33:20.976Z,33.7
2018-02-19T00:34:29.972Z,34.19
2018-02-19T00:35:39.225Z,34.19
2018-02-19T00:36:47.984Z,34.28
2018-02-19T00:37:57.580Z,34.28
2018-02-19T00:39:06.568Z,34.28
2018-02-19T00:40:16.090Z,34.19
2018-02-19T00:41:24.827Z,34.28
2018-02-19T00:42:34.092Z,33.7
2018-02-19T00:43:43.039Z,33.8
2018-02-19T00:44:51.988Z,34.28
2018-02-19T00:46:01.485Z,33.7
2018-02-19T00:47:10.975Z,33.61
2018-02-19T00:48:19.916Z,33.61
2018-02-19T00:49:29.922Z,34.28
2018-02-19T00:50:39.170Z,33.7
2018-02-19T00:51:48.215Z,33.8
2018-02-19T00:52:56.945Z,33.61
2018-02-19T00:54:05.693Z,34.28
2018-02-19T00:55:15.251Z,33.8
2018-02-19T00:56:23.936Z,33.8
2018-02-19T00:57:32.880Z,33.8
2018-02-19T00:58:41.900Z,33.8
2018-02-19T00:59:51.126Z,33.8
2018-02-19T01:01:00.091Z,33.8
2018-02-19T01:02:09.054Z,33.8
2018-02-19T01:03:18.545Z,33.8
2018-02-19T01:04:27.301Z,33.7
2018-02-19T01:05:36.525Z,33.8
2018-02-19T01:06:45.779Z,33.8
2018-02-19T01:07:54.795Z,33.8
2018-02-19T01:09:04.014Z,34.28
2018-02-19T01:10:13.017Z,33.7
2018-02-19T01:11:21.979Z,33.7
2018-02-19T01:12:30.977Z,34.28
2018-02-19T01:13:39.685Z,33.7
2018-02-19T01:14:48.908Z,34.19
2018-02-19T01:15:57.886Z,34.19
2018-02-19T01:17:07.174Z,34.28
2018-02-19T01:18:16.392Z,34.19
2018-02-19T01:19:25.365Z,34.28
2018-02-19T01:20:34.604Z,34.28
2018-02-19T01:21:43.603Z,34.19
2018-02-19T01:22:53.690Z,34.19
2018-02-19T01:24:02.649Z,34.19
2018-02-19T01:25:11.912Z,34.28
2018-02-19T01:26:20.915Z,34.09
2018-02-19T01:27:30.184Z,34.28
2018-02-19T01:28:39.712Z,34.28
2018-02-19T01:29:48.679Z,34.28
2018-02-19T01:30:57.626Z,33.7
2018-02-19T01:32:06.883Z,34.19
2018-02-19T01:33:16.187Z,34.28
2018-02-19T01:34:25.678Z,34.28
2018-02-19T01:35:34.619Z,34.19
2018-02-19T01:36:43.604Z,33.7
2018-02-19T01:37:52.542Z,33.7
2018-02-19T01:39:01.224Z,34.28
2018-02-19T01:40:10.447Z,33.61
2018-02-19T01:41:19.413Z,34.28
2018-02-19T01:42:28.381Z,33.8
2018-02-19T01:43:38.112Z,33.8
2018-02-19T01:44:47.326Z,33.8
2018-02-19T01:45:56.010Z,33.9
2018-02-19T01:47:04.954Z,33.99
2018-02-19T01:48:13.981Z,33.8
2018-02-19T01:49:23.202Z,33.8
2018-02-19T01:50:32.209Z,33.9
2018-02-19T01:51:41.417Z,33.9
2018-02-19T01:52:50.372Z,33.9
2018-02-19T01:53:59.615Z,33.8
2018-02-19T01:55:08.584Z,33.99
2018-02-19T01:56:17.545Z,33.99
2018-02-19T01:57:26.489Z,33.8
2018-02-19T01:58:35.731Z,33.9
2018-02-19T01:59:44.953Z,33.99
2018-02-19T02:00:54.175Z,33.9
2018-02-19T02:02:03.133Z,33.99
2018-02-19T02:03:12.070Z,33.9
2018-02-19T02:04:21.042Z,33.9
2018-02-19T02:05:29.982Z,33.99
2018-02-19T02:06:39.512Z,33.99
2018-02-19T02:07:48.222Z,33.9
2018-02-19T02:08:57.447Z,33.99
2018-02-19T02:10:06.928Z,33.9
2018-02-19T02:11:15.872Z,33.99
2018-02-19T02:12:24.833Z,33.9
2018-02-19T02:13:34.298Z,33.9
2018-02-19T02:14:42.988Z,33.99
2018-02-19T02:15:52.313Z,33.9
2018-02-19T02:17:01.348Z,34.19
2018-02-19T02:18:10.116Z,33.9
2018-02-19T02:19:19.333Z,34.09
2018-02-19T02:20:28.798Z,33.99
2018-02-19T02:21:37.880Z,33.99
2018-02-19T02:22:46.853Z,34.09
2018-02-19T02:23:56.050Z,33.9
2018-02-19T02:25:04.991Z,33.9
2018-02-19T02:26:14.612Z,33.9
2018-02-19T02:27:23.844Z,33.99
2018-02-19T02:28:33.055Z,33.9
2018-02-19T02:29:42.326Z,33.8
2018-02-19T02:30:51.308Z,33.8
2018-02-19T02:32:00.871Z,33.9
2018-02-19T02:33:10.365Z,33.7
2018-02-19T02:34:19.038Z,33.7
2018-02-19T02:35:28.018Z,33.61
2018-02-19T02:36:37.262Z,33.61
2018-02-19T02:37:46.485Z,33.8
2018-02-19T02:38:55.707Z,33.7
2018-02-19T02:40:04.921Z,33.7
2018-02-19T02:41:14.852Z,33.42
2018-02-19T02:42:23.922Z,33.51
2018-02-19T02:43:33.405Z,33.42
2018-02-19T02:44:42.446Z,33.51
2018-02-19T02:45:51.996Z,33.51
2018-02-19T02:47:00.818Z,33.61
2018-02-19T02:48:10.040Z,33.51
2018-02-19T02:49:19.331Z,33.61
2018-02-19T02:50:28.035Z,33.61
2018-02-19T02:51:37.585Z,33.42
2018-02-19T02:52:46.875Z,33.13
2018-02-19T02:53:55.895Z,33.23
2018-02-19T02:55:05.446Z,33.42
2018-02-19T02:56:14.476Z,33.7
2018-02-19T02:57:24.017Z,33.42
2018-02-19T02:58:32.746Z,33.32
2018-02-19T02:59:41.522Z,33.7
2018-02-19T03:00:50.758Z,33.7
2018-02-19T03:01:59.721Z,33.42
2018-02-19T03:03:08.987Z,33.32
2018-02-19T03:04:18.851Z,33.23
2018-02-19T03:05:27.894Z,33.7
2018-02-19T03:06:37.160Z,33.23
2018-02-19T03:07:46.383Z,33.23
2018-02-19T03:08:55.355Z,33.23
2018-02-19T03:10:04.331Z,33.42
2018-02-19T03:11:13.613Z,33.61
2018-02-19T03:12:22.901Z,33.42
2018-02-19T03:13:31.886Z,33.61
2018-02-19T03:14:41.140Z,33.51
2018-02-19T03:15:50.127Z,33.32
2018-02-19T03:16:59.346Z,33.42
2018-02-19T03:18:08.905Z,33.51
2018-02-19T03:19:18.408Z,33.51
2018-02-19T03:20:27.880Z,33.61
2018-02-19T03:21:37.092Z,33.61
2018-02-19T03:22:46.603Z,33.13
2018-02-19T03:23:55.320Z,33.42
2018-02-19T03:25:04.037Z,33.61
2018-02-19T03:26:13.265Z,33.42
2018-02-19T03:27:22.480Z,33.51
2018-02-19T03:28:31.199Z,33.61
2018-02-19T03:29:40.445Z,33.51
2018-02-19T03:30:49.679Z,33.13
2018-02-19T03:31:58.923Z,33.13
2018-02-19T03:33:08.218Z,33.03
2018-02-19T03:34:17.424Z,33.13
2018-02-19T03:35:26.948Z,33.13
2018-02-19T03:36:36.999Z,33.13
2018-02-19T03:37:45.963Z,33.13
2018-02-19T03:38:55.168Z,33.23
2018-02-19T03:40:04.123Z,33.13
2018-02-19T03:41:13.376Z,33.42
2018-02-19T03:42:22.836Z,33.23
2018-02-19T03:43:32.055Z,33.23
2018-02-19T03:44:41.543Z,33.03
2018-02-19T03:45:50.558Z,33.03
2018-02-19T03:47:00.039Z,33.03
2018-02-19T03:48:09.767Z,33.13
2018-02-19T03:49:18.964Z,33.51
2018-02-19T03:50:27.901Z,33.61
2018-02-19T03:51:37.206Z,33.61
2018-02-19T03:52:46.168Z,33.51
2018-02-19T03:53:54.855Z,33.42
2018-02-19T03:55:03.547Z,33.61
2018-02-19T03:56:12.232Z,33.23
2018-02-19T03:57:21.195Z,33.42
2018-02-19T03:58:29.885Z,33.42
2018-02-19T03:59:39.364Z,33.42
2018-02-19T04:00:48.663Z,33.51
2018-02-19T04:01:57.897Z,33.59
2018-02-19T04:03:07.691Z,33.61
2018-02-19T04:04:16.694Z,33.61
2018-02-19T04:05:25.961Z,33.11
2018-02-19T04:06:34.945Z,33.21
2018-02-19T04:07:44.172Z,33.23
2018-02-19T04:08:53.416Z,33.51
2018-02-19T04:10:02.413Z,33.13
2018-02-19T04:11:11.431Z,33.13
2018-02-19T04:12:20.400Z,33.23
2018-02-19T04:13:29.442Z,33.11
2018-02-19T04:14:38.662Z,33.23
2018-02-19T04:15:47.417Z,33.31
2018-02-19T04:16:56.887Z,33.32
2018-02-19T04:18:05.891Z,33.31
2018-02-19T04:19:14.589Z,33.32
2018-02-19T04:20:23.846Z,33.23
2018-02-19T04:21:33.107Z,33.23
2018-02-19T04:22:43.111Z,33.11
2018-02-19T04:23:51.844Z,33.32
2018-02-19T04:25:01.311Z,33.13
2018-02-19T04:26:10.564Z,33.11
2018-02-19T04:27:20.145Z,33.13
2018-02-19T04:28:28.895Z,33.11
2018-02-19T04:29:38.185Z,33.13
2018-02-19T04:30:47.133Z,33.11
2018-02-19T04:31:55.872Z,33.13
2018-02-19T04:33:04.878Z,33.03
2018-02-19T04:34:13.958Z,32.92
2018-02-19T04:35:22.917Z,33.03
2018-02-19T04:36:32.157Z,32.93
2018-02-19T04:37:41.498Z,32.84
2018-02-19T04:38:50.300Z,32.84
2018-02-19T04:39:59.111Z,32.92
2018-02-19T04:41:08.233Z,33.03
2018-02-19T04:42:17.294Z,32.84
2018-02-19T04:43:26.277Z,32.93
2018-02-19T04:44:35.288Z,33.01
2018-02-19T04:45:44.808Z,32.92
2018-02-19T04:46:54.091Z,33.11
2018-02-19T04:48:03.474Z,32.92
2018-02-19T04:49:12.776Z,32.82
2018-02-19T04:50:22.097Z,32.82
2018-02-19T04:51:30.890Z,32.92
2018-02-19T04:52:39.972Z,33.01
2018-02-19T04:53:48.714Z,32.92
2018-02-19T04:54:57.697Z,32.92
2018-02-19T04:56:06.429Z,32.82
2018-02-19T04:57:15.120Z,32.92
2018-02-19T04:58:23.828Z,32.82
2018-02-19T04:59:32.852Z,32.82
2018-02-19T05:00:41.829Z,32.92
2018-02-19T05:01:51.090Z,32.82
2018-02-19T05:02:59.809Z,32.82
2018-02-19T05:04:09.679Z,32.92
2018-02-19T05:05:18.654Z,33.21
2018-02-19T05:06:27.356Z,33.21
2018-02-19T05:07:36.303Z,33.11
2018-02-19T05:08:45.521Z,33.21
2018-02-19T05:09:54.480Z,33.21
2018-02-19T05:11:03.465Z,33.31
2018-02-19T05:12:12.434Z,33.11
2018-02-19T05:13:21.113Z,33.11
2018-02-19T05:14:30.341Z,33.11
2018-02-19T05:15:39.288Z,33.11
2018-02-19T05:16:48.798Z,33.11
2018-02-19T05:17:58.016Z,33.11
2018-02-19T05:19:06.958Z,33.01
2018-02-19T05:20:15.653Z,33.21
2018-02-19T05:21:24.380Z,33.31
2018-02-19T05:22:33.396Z,33.21
2018-02-19T05:23:42.872Z,33.01
2018-02-19T05:24:52.166Z,33.11
2018-02-19T05:26:01.394Z,32.92
2018-02-19T05:27:10.081Z,32.92
2018-02-19T05:28:19.306Z,32.92
2018-02-19T05:29:28.281Z,32.92
2018-02-19T05:30:37.271Z,33.01
2018-02-19T05:31:46.759Z,32.82
2018-02-19T05:32:55.967Z,32.82
2018-02-19T05:34:05.444Z,32.92
2018-02-19T05:35:14.383Z,32.92
2018-02-19T05:36:23.616Z,32.92
2018-02-19T05:37:32.914Z,33.01
2018-02-19T05:38:42.380Z,32.82
2018-02-19T05:39:51.348Z,33.01
2018-02-19T05:41:00.581Z,32.92
2018-02-19T05:42:09.917Z,32.92
2018-02-19T05:43:19.377Z,32.92
2018-02-19T05:44:28.931Z,33.11
2018-02-19T05:45:37.892Z,33.11
2018-02-19T05:46:47.136Z,33.01
2018-02-19T05:47:56.420Z,33.11
2018-02-19T05:49:05.136Z,32.82
2018-02-19T05:50:14.118Z,32.82
2018-02-19T05:51:23.647Z,32.82
2018-02-19T05:52:32.660Z,32.92
2018-02-19T05:53:41.677Z,32.92
2018-02-19T05:54:50.958Z,32.92
2018-02-19T05:56:00.216Z,32.73
2018-02-19T05:57:09.224Z,32.92
2018-02-19T05:58:18.239Z,32.82
2018-02-19T05:59:27.197Z,32.82
2018-02-19T06:00:36.489Z,32.82
2018-02-19T06:01:45.752Z,32.92
2018-02-19T06:02:54.437Z,32.73
2018-02-19T06:04:03.736Z,32.73
2018-02-19T06:05:13.275Z,32.92
2018-02-19T06:06:22.298Z,32.92
2018-02-19T06:07:31.641Z,32.92
2018-02-19T06:08:40.614Z,32.82
2018-02-19T06:09:49.579Z,33.01
2018-02-19T06:10:58.548Z,32.92
2018-02-19T06:12:07.536Z,32.92
2018-02-19T06:13:16.566Z,33.01
2018-02-19T06:14:26.367Z,32.73
2018-02-19T06:15:35.085Z,32.82
2018-02-19T06:16:43.900Z,32.92
2018-02-19T06:17:52.858Z,32.82
2018-02-19T06:19:01.625Z,32.64
2018-02-19T06:20:10.412Z,32.73
2018-02-19T06:21:19.474Z,32.82
2018-02-19T06:22:28.559Z,32.64
2018-02-19T06:23:37.863Z,32.92
2018-02-19T06:24:46.888Z,32.82
2018-02-19T06:25:56.566Z,32.64
2018-02-19T06:27:05.927Z,32.92
2018-02-19T06:28:15.255Z,32.64
2018-02-19T06:29:24.514Z,32.82
2018-02-19T06:30:34.166Z,32.92
2018-02-19T06:31:43.231Z,33.01
2018-02-19T06:32:52.198Z,32.73
2018-02-19T06:34:01.439Z,32.73
2018-02-19T06:35:10.400Z,32.73
2018-02-19T06:36:19.623Z,32.54
2018-02-19T06:37:28.904Z,32.44
2018-02-19T06:38:37.583Z,32.44
2018-02-19T06:39:46.317Z,32.64
2018-02-19T06:40:55.299Z,32.65
2018-02-19T06:42:04.508Z,32.44
2018-02-19T06:43:13.486Z,32.44
2018-02-19T06:44:22.755Z,32.36
2018-02-19T06:45:32.530Z,32.54
2018-02-19T06:46:41.233Z,32.54
2018-02-19T06:47:50.505Z,32.46
2018-02-19T06:48:59.498Z,32.55
2018-02-19T06:50:08.741Z,32.44
2018-02-19T06:51:17.712Z,32.54
2018-02-19T06:52:26.956Z,32.46
2018-02-19T06:53:35.652Z,32.44
2018-02-19T06:54:44.660Z,32.64
2018-02-19T06:55:53.656Z,32.46
2018-02-19T06:57:02.706Z,32.46
2018-02-19T06:58:11.676Z,32.46
2018-02-19T06:59:20.912Z,32.44
2018-02-19T07:00:29.862Z,32.55
2018-02-19T07:01:39.634Z,32.55
2018-02-19T07:02:48.867Z,32.44
2018-02-19T07:03:58.120Z,32.34
2018-02-19T07:05:07.871Z,32.46
2018-02-19T07:06:17.118Z,32.34
2018-02-19T07:07:26.340Z,32.54
2018-02-19T07:08:35.315Z,32.55
2018-02-19T07:09:44.279Z,32.46
2018-02-19T07:10:53.334Z,32.46
2018-02-19T07:12:02.038Z,32.36
2018-02-19T07:13:11.293Z,32.34
2018-02-19T07:14:20.264Z,32.44
2018-02-19T07:15:29.797Z,32.46
2018-02-19T07:16:38.790Z,32.25
2018-02-19T07:17:47.537Z,32.46
2018-02-19T07:18:56.235Z,32.36
2018-02-19T07:20:05.516Z,32.26
2018-02-19T07:21:15.021Z,32.54
2018-02-19T07:22:24.019Z,32.15
2018-02-19T07:23:32.755Z,32.25
2018-02-19T07:24:41.735Z,32.46
2018-02-19T07:25:50.986Z,32.34
2018-02-19T07:26:59.924Z,32.26
2018-02-19T07:28:08.898Z,32.26
2018-02-19T07:29:17.612Z,32.15
2018-02-19T07:30:26.299Z,32.34
2018-02-19T07:31:35.301Z,32.36
2018-02-19T07:32:44.075Z,32.07
2018-02-19T07:33:53.156Z,32.07
2018-02-19T07:35:02.906Z,32.26
2018-02-19T07:36:11.872Z,32.17
2018-02-19T07:37:20.845Z,32.07
2018-02-19T07:38:30.588Z,32.17
2018-02-19T07:39:39.800Z,32.17
2018-02-19T07:40:49.328Z,31.87
2018-02-19T07:41:58.346Z,31.98
2018-02-19T07:43:07.321Z,32.07
2018-02-19T07:44:16.890Z,32.07
2018-02-19T07:45:25.554Z,32.07
2018-02-19T07:46:35.159Z,32.07
2018-02-19T07:47:44.646Z,31.98
2018-02-19T07:48:53.410Z,31.98
2018-02-19T07:50:02.765Z,32.07
2018-02-19T07:51:11.845Z,31.88
2018-02-19T07:52:21.455Z,32.07
2018-02-19T07:53:30.515Z,31.88
2018-02-19T07:54:39.452Z,31.79
2018-02-19T07:55:48.214Z,31.88
2018-02-19T07:56:57.162Z,31.69
2018-02-19T07:58:06.669Z,31.88
2018-02-19T07:59:15.838Z,31.88
2018-02-19T08:00:24.867Z,31.88
2018-02-19T08:01:34.173Z,31.98
2018-02-19T08:02:43.210Z,31.79
2018-02-19T08:03:52.215Z,31.79
2018-02-19T08:05:01.709Z,31.69
2018-02-19T08:06:10.930Z,31.49
2018-02-19T08:07:21.108Z,31.4
2018-02-19T08:08:31.052Z,31.51
2018-02-19T08:09:40.026Z,31.23
2018-02-19T08:10:49.507Z,31.41
2018-02-19T08:11:58.517Z,31.41
2018-02-19T08:13:07.325Z,31.23
2018-02-19T08:14:16.841Z,31.13
2018-02-19T08:15:26.909Z,31.03
2018-02-19T08:16:36.304Z,31.03
2018-02-19T08:17:45.563Z,31.03
2018-02-19T08:18:54.476Z,30.85
2018-02-19T08:20:03.875Z,30.76
2018-02-19T08:21:14.048Z,30.57
2018-02-19T08:22:23.111Z,30.57
2018-02-19T08:23:32.330Z,30.18
2018-02-19T08:24:41.906Z,30.47
2018-02-19T08:25:51.144Z,30.28
2018-02-19T08:27:00.677Z,30.28
2018-02-19T08:28:09.964Z,30.57
2018-02-19T08:29:18.957Z,30.08
2018-02-19T08:30:28.201Z,30.19
2018-02-19T08:31:37.188Z,29.99
2018-02-19T08:32:46.405Z,29.91
2018-02-19T08:33:55.101Z,30.29
2018-02-19T08:35:04.374Z,30
2018-02-19T08:36:13.072Z,30.19
2018-02-19T08:37:22.036Z,30.1
2018-02-19T08:38:30.998Z,30.1
2018-02-19T08:39:40.296Z,30.19
2018-02-19T08:40:49.613Z,29.72
2018-02-19T08:41:58.348Z,29.72
2018-02-19T08:43:07.651Z,29.91
2018-02-19T08:44:17.576Z,29.91
2018-02-19T08:45:26.632Z,29.91
2018-02-19T08:46:35.918Z,29.91
2018-02-19T08:47:45.449Z,29.72
2018-02-19T08:48:54.718Z,29.72
2018-02-19T08:50:04.301Z,29.91
2018-02-19T08:51:13.375Z,29.35
2018-02-19T08:52:22.137Z,29.63
2018-02-19T08:53:31.165Z,29.44
2018-02-19T08:54:40.183Z,29.63
2018-02-19T08:55:49.002Z,29.06
2018-02-19T08:56:57.730Z,29.17
2018-02-19T08:58:06.449Z,29.17
2018-02-19T08:59:15.682Z,29.46
2018-02-19T09:00:25.200Z,28.88
2018-02-19T09:01:34.460Z,29.07
2018-02-19T09:02:43.175Z,28.88
2018-02-19T09:03:52.152Z,28.7
2018-02-19T09:05:01.147Z,28.61
2018-02-19T09:06:10.642Z,28.61
2018-02-19T09:07:20.438Z,28.61
2018-02-19T09:08:29.725Z,28.22
2018-02-19T09:09:39.010Z,28.33
2018-02-19T09:10:48.002Z,28.23
2018-02-19T09:11:57.519Z,27.75
2018-02-19T09:13:06.752Z,27.85
2018-02-19T09:14:16.315Z,27.86
2018-02-19T09:15:25.060Z,27.86
2018-02-19T09:16:34.022Z,27.96
2018-02-19T09:17:43.058Z,27.86
2018-02-19T09:18:52.051Z,27.86
2018-02-19T09:20:01.299Z,27.86
2018-02-19T09:21:10.904Z,27.96
2018-02-19T09:22:19.884Z,27.76
2018-02-19T09:23:29.137Z,27.67
2018-02-19T09:24:38.085Z,27.68
2018-02-19T09:25:47.333Z,27.78
2018-02-19T09:26:56.298Z,27.78
2018-02-19T09:28:05.588Z,27.78
2018-02-19T09:29:14.793Z,27.59
2018-02-19T09:30:24.397Z,27.68
2018-02-19T09:31:33.139Z,27.49
2018-02-19T09:32:42.359Z,27.68
2018-02-19T09:33:51.601Z,27.59
2018-02-19T09:35:00.343Z,27.78
2018-02-19T09:36:09.731Z,27.68
2018-02-19T09:37:21.193Z,27.87
2018-02-19T09:38:30.178Z,27.87
2018-02-19T09:39:41.483Z,27.89
2018-02-19T09:40:50.733Z,27.89
2018-02-19T09:41:59.768Z,27.8
2018-02-19T09:43:09.287Z,27.7
2018-02-19T09:44:18.021Z,27.7
2018-02-19T09:45:27.002Z,27.6
2018-02-19T09:46:36.306Z,27.7
2018-02-19T09:47:45.835Z,27.7
2018-02-19T09:48:54.898Z,27.5
2018-02-19T09:50:04.434Z,27.8
2018-02-19T09:51:13.190Z,27.8
2018-02-19T09:52:22.166Z,27.71
2018-02-19T09:53:31.686Z,27.8
2018-02-19T09:54:40.659Z,27.7
2018-02-19T09:55:49.969Z,27.91
2018-02-19T09:56:59.291Z,28
2018-02-19T09:58:08.018Z,27.91
2018-02-19T09:59:16.977Z,27.81
2018-02-19T10:00:25.942Z,28.18
2018-02-19T10:01:35.185Z,28.76
2018-02-19T10:02:43.926Z,28.94
2018-02-19T10:03:52.887Z,29.41
2018-02-19T10:05:02.088Z,29.77
2018-02-19T10:06:11.574Z,29.97
2018-02-19T10:07:21.332Z,30.73
2018-02-19T10:08:30.562Z,31.09
2018-02-19T10:09:39.768Z,31.19
2018-02-19T10:10:48.733Z,31.56
2018-02-19T10:11:57.701Z,31.65
2018-02-19T10:13:07.529Z,31.95
2018-02-19T10:14:17.387Z,32.31
2018-02-19T10:15:27.233Z,32.51
2018-02-19T10:16:35.920Z,32.78
2018-02-19T10:17:45.139Z,33.16
2018-02-19T10:18:54.421Z,33.15
2018-02-19T10:20:04.403Z,33.15
2018-02-19T10:21:13.967Z,33.53
2018-02-19T10:22:23.142Z,33.9
2018-02-19T10:23:32.213Z,33.9
2018-02-19T10:24:42.246Z,34.28
2018-02-19T10:25:50.985Z,34.07
2018-02-19T10:27:00.482Z,34.27
2018-02-19T10:28:09.715Z,34.27
2018-02-19T10:29:18.931Z,34.53
2018-02-19T10:30:27.881Z,34.06
2018-02-19T10:31:37.428Z,34.25
2018-02-19T10:32:46.666Z,34.25
2018-02-19T10:33:55.934Z,34.44
2018-02-19T10:35:05.178Z,35
2018-02-19T10:36:14.442Z,34.9
2018-02-19T10:37:24.126Z,34.81
2018-02-19T10:38:34.170Z,34.9
2018-02-19T10:39:43.986Z,34.9
2018-02-19T10:40:53.752Z,34.9
2018-02-19T10:42:02.842Z,35.17
2018-02-19T10:43:12.065Z,34.98
2018-02-19T10:44:21.040Z,34.98
2018-02-19T10:45:30.506Z,34.88
2018-02-19T10:46:39.445Z,35.17
2018-02-19T10:47:48.944Z,34.98
2018-02-19T10:48:58.477Z,34.98
2018-02-19T10:50:07.695Z,34.88
2018-02-19T10:51:16.639Z,35.08
2018-02-19T10:52:25.340Z,34.69
2018-02-19T10:53:34.330Z,34.23
2018-02-19T10:54:43.266Z,33.94
2018-02-19T10:55:52.246Z,33.84
2018-02-19T10:57:01.452Z,33.37
2018-02-19T10:58:10.677Z,33.09
2018-02-19T10:59:19.372Z,32.81
2018-02-19T11:00:28.346Z,32.54
2018-02-19T11:01:37.322Z,32.44
2018-02-19T11:02:46.801Z,31.87
2018-02-19T11:03:56.201Z,31.67
2018-02-19T11:05:04.907Z,31.59
2018-02-19T11:06:13.843Z,31.3
2018-02-19T11:07:22.835Z,31.13
2018-02-19T11:08:32.319Z,30.93
2018-02-19T11:09:41.638Z,30.74
2018-02-19T11:10:51.164Z,30.65
2018-02-19T11:12:00.643Z,30.55
2018-02-19T11:13:09.967Z,30.57
2018-02-19T11:14:19.288Z,29.99
2018-02-19T11:15:29.037Z,30.08
2018-02-19T11:16:38.059Z,29.8
2018-02-19T11:17:46.791Z,29.72
2018-02-19T11:18:55.735Z,29.33
2018-02-19T11:20:05.038Z,29.43
2018-02-19T11:21:14.335Z,29.52
2018-02-19T11:22:23.073Z,29.72
2018-02-19T11:23:32.288Z,29.62
2018-02-19T11:24:40.973Z,29.62
2018-02-19T11:25:49.987Z,29.52
2018-02-19T11:26:59.250Z,29.24
2018-02-19T11:28:08.803Z,29.35
2018-02-19T11:29:17.766Z,29.06
2018-02-19T11:30:27.263Z,29.15
2018-02-19T11:31:36.500Z,29.15
2018-02-19T11:32:45.230Z,29.35
2018-02-19T11:33:54.183Z,28.77
2018-02-19T11:35:03.444Z,28.86
2018-02-19T11:36:12.668Z,28.86
2018-02-19T11:37:22.193Z,28.96
2018-02-19T11:38:31.168Z,28.97
2018-02-19T11:39:40.258Z,28.97
2018-02-19T11:40:49.483Z,28.97
2018-02-19T11:41:58.190Z,28.97
2018-02-19T11:43:07.935Z,28.88
2018-02-19T11:44:16.663Z,29.07
2018-02-19T11:45:25.897Z,28.97
2018-02-19T11:46:35.109Z,28.97
2018-02-19T11:47:44.370Z,29.07
2018-02-19T11:48:53.332Z,28.97
2018-02-19T11:50:02.034Z,28.97
2018-02-19T11:51:11.002Z,29.07
2018-02-19T11:52:20.277Z,29.07
2018-02-19T11:53:29.499Z,28.97
2018-02-19T11:54:39.088Z,29.07
2018-02-19T11:55:48.333Z,28.97
2018-02-19T11:56:57.016Z,28.88
2018-02-19T11:58:06.523Z,28.97
2018-02-19T11:59:16.026Z,28.88
2018-02-19T12:00:25.255Z,29.55
2018-02-19T12:01:34.475Z,29.46
2018-02-19T12:02:43.794Z,29.36
2018-02-19T12:03:53.331Z,29.17
2018-02-19T12:05:02.296Z,29.17
2018-02-19T12:06:12.122Z,29.17
2018-02-19T12:07:21.695Z,29.17
2018-02-19T12:08:30.652Z,29.27
2018-02-19T12:09:39.601Z,29.07
2018-02-19T12:10:48.567Z,29.27
2018-02-19T12:11:57.252Z,29.07
2018-02-19T12:13:06.481Z,29.07
2018-02-19T12:14:15.464Z,29.17
2018-02-19T12:15:24.970Z,29.46
2018-02-19T12:16:34.441Z,29.36
2018-02-19T12:17:43.485Z,29.65
2018-02-19T12:18:52.706Z,29.17
2018-02-19T12:20:01.671Z,29.46
2018-02-19T12:21:10.608Z,29.74
2018-02-19T12:22:19.309Z,29.46
2018-02-19T12:23:28.255Z,29.36
2018-02-19T12:24:37.237Z,29.63
2018-02-19T12:25:46.468Z,29.54
2018-02-19T12:26:55.669Z,29.63
2018-02-19T12:28:04.893Z,29.55
2018-02-19T12:29:14.112Z,30.13
2018-02-19T12:30:22.798Z,29.94
2018-02-19T12:31:32.003Z,29.63
2018-02-19T12:32:41.228Z,29.84
2018-02-19T12:33:49.918Z,29.84
2018-02-19T12:34:59.209Z,29.83
2018-02-19T12:36:08.259Z,29.84
2018-02-19T12:37:17.765Z,29.93
2018-02-19T12:38:26.763Z,29.93
2018-02-19T12:39:35.761Z,30.21
2018-02-19T12:40:44.945Z,30.11
2018-02-19T12:41:54.182Z,30.21
2018-02-19T12:43:03.144Z,30.02
2018-02-19T12:44:12.087Z,30.31
2018-02-19T12:45:21.091Z,30.21
2018-02-19T12:46:30.594Z,30.11
2018-02-19T12:47:40.109Z,30.11
2018-02-19T12:48:49.346Z,29.93
2018-02-19T12:49:58.283Z,30.4
2018-02-19T12:51:07.808Z,30.21
2018-02-19T12:52:16.528Z,30.11
2018-02-19T12:53:25.797Z,29.93
2018-02-19T12:54:34.889Z,30.4
2018-02-19T12:55:44.102Z,30.4
2018-02-19T12:56:53.099Z,30.4
2018-02-19T12:58:01.813Z,30.4
2018-02-19T12:59:10.756Z,30.4
2018-02-19T13:00:20.254Z,30.4
2018-02-19T13:01:29.256Z,30.69
2018-02-19T13:02:38.487Z,30.5
2018-02-19T13:03:47.507Z,30.5
2018-02-19T13:04:56.200Z,30.6
2018-02-19T13:06:05.182Z,30.69
2018-02-19T13:07:14.148Z,30.5
2018-02-19T13:08:23.377Z,30.6
2018-02-19T13:09:32.320Z,30.5
2018-02-19T13:10:42.251Z,30.6
2018-02-19T13:11:51.491Z,30.79
2018-02-19T13:13:00.705Z,30.79
2018-02-19T13:14:09.926Z,30.79
2018-02-19T13:15:18.890Z,30.6
2018-02-19T13:16:28.126Z,30.69
2018-02-19T13:17:37.102Z,30.79
2018-02-19T13:18:46.338Z,30.79
2018-02-19T13:19:55.024Z,30.79
2018-02-19T13:21:03.766Z,30.69
2018-02-19T13:22:13.634Z,30.98
2018-02-19T13:23:22.456Z,30.88
2018-02-19T13:24:31.405Z,30.88
2018-02-19T13:25:41.156Z,30.79
2018-02-19T13:26:50.664Z,30.98
2018-02-19T13:27:59.918Z,30.98
2018-02-19T13:29:08.970Z,30.79
2018-02-19T13:30:17.923Z,31.08
2018-02-19T13:31:26.899Z,30.98
2018-02-19T13:32:36.173Z,31.18
2018-02-19T13:33:45.985Z,31.18
2018-02-19T13:34:54.972Z,31.18
2018-02-19T13:36:04.521Z,31.27
2018-02-19T13:37:13.878Z,31.18
2018-02-19T13:38:23.820Z,31.27
2018-02-19T13:39:32.814Z,31.18
2018-02-19T13:40:41.807Z,31.18
2018-02-19T13:41:51.045Z,31.08
2018-02-19T13:42:59.747Z,31.37
2018-02-19T13:44:08.970Z,31.37
2018-02-19T13:45:17.658Z,31.46
2018-02-19T13:46:26.749Z,31.46
2018-02-19T13:47:35.947Z,31.46
2018-02-19T13:48:44.898Z,31.46
2018-02-19T13:49:54.407Z,31.46
2018-02-19T13:51:03.676Z,31.75
2018-02-19T13:52:12.727Z,31.93
2018-02-19T13:53:21.736Z,32.03
2018-02-19T13:54:30.994Z,32.49
2018-02-19T13:55:40.806Z,32.41
2018-02-19T13:56:49.744Z,32.31
2018-02-19T13:57:59.542Z,32.39
2018-02-19T13:59:08.540Z,32.3
2018-02-19T14:00:17.802Z,32.39
2018-02-19T14:01:27.088Z,32.49
2018-02-19T14:02:36.692Z,32.3
2018-02-19T14:03:45.407Z,32.21
2018-02-19T14:04:54.948Z,32.12
2018-02-19T14:06:04.216Z,32.1
2018-02-19T14:07:13.820Z,32.03
2018-02-19T14:08:23.697Z,32.12
2018-02-19T14:09:33.032Z,32.12
2018-02-19T14:10:42.159Z,32.03
2018-02-19T14:11:50.969Z,32.03
2018-02-19T14:13:00.491Z,32.21
2018-02-19T14:14:09.508Z,32.03
2018-02-19T14:15:18.584Z,32.03
2018-02-19T14:16:27.860Z,32.12
2018-02-19T14:17:36.622Z,31.83
2018-02-19T14:18:45.342Z,31.93
2018-02-19T14:19:54.366Z,31.93
2018-02-19T14:21:03.374Z,31.93
2018-02-19T14:22:12.686Z,32.03
2018-02-19T14:23:22.013Z,31.93
2018-02-19T14:24:31.085Z,31.83
2018-02-19T14:25:40.887Z,32.03
2018-02-19T14:26:49.699Z,31.93
2018-02-19T14:27:58.494Z,31.93
2018-02-19T14:29:07.314Z,32.03
2018-02-19T14:30:16.625Z,31.93
2018-02-19T14:31:25.664Z,31.93
2018-02-19T14:32:34.931Z,32.12
2018-02-19T14:33:43.938Z,31.93
2018-02-19T14:34:52.903Z,32.21
2018-02-19T14:36:01.981Z,32.12
2018-02-19T14:37:10.982Z,31.93
2018-02-19T14:38:20.233Z,32.03
2018-02-19T14:39:29.484Z,32.12
2018-02-19T14:40:38.845Z,32.03
2018-02-19T14:41:47.820Z,32.12
2018-02-19T14:42:57.379Z,32.03
2018-02-19T14:44:06.120Z,31.93
2018-02-19T14:45:15.924Z,32.12
2018-02-19T14:46:24.682Z,32.03
2018-02-19T14:47:33.423Z,32.03
2018-02-19T14:48:42.157Z,31.93
2018-02-19T14:49:51.428Z,32.03
2018-02-19T14:51:00.448Z,32.03
2018-02-19T14:52:09.725Z,32.03
2018-02-19T14:53:18.449Z,32.21
2018-02-19T14:54:27.511Z,32.03
2018-02-19T14:55:36.290Z,32.03